Time;durP1;ratioP1;P1;durP2;ratioP2;P2;SDS_P1;SDS_P2;PMS_P1;PMS_P2;Temp;Humidity;BMP_temperature;BMP_pressure;BME280_temperature;BME280_humidity;BME280_pressure;Samples;Min_cycle;Max_cycle;Signal;HPM_P1;HPM_P2
2022/08/06 00:02:08;;;;;;;5.50;1.20;;;24.10;52.50;;;;;;5025255;28;20486;-57
2022/08/06 00:04:34;;;;;;;2.30;1.20;;;24.10;52.50;;;;;;5024839;28;20037;-56
2022/08/06 00:06:59;;;;;;;6.07;1.50;;;24.10;52.50;;;;;;5025946;28;20044;-56
2022/08/06 00:09:30;;;;;;;5.45;1.13;;;24.10;52.60;;;;;;5026448;28;20068;-56
2022/08/06 00:11:59;;;;;;;4.20;1.23;;;24.00;52.50;;;;;;5026881;28;20396;-56
2022/08/06 00:14:28;;;;;;;3.17;1.20;;;24.00;52.30;;;;;;5019564;28;20025;-56
2022/08/06 00:16:54;;;;;;;4.65;1.27;;;24.00;52.40;;;;;;5023857;28;20130;-56
2022/08/06 00:19:20;;;;;;;5.32;1.27;;;24.00;52.40;;;;;;5024499;28;20541;-56
2022/08/06 00:21:46;;;;;;;4.07;1.30;;;24.00;52.60;;;;;;5025169;28;20052;-57
2022/08/06 00:24:12;;;;;;;4.20;1.27;;;24.00;52.40;;;;;;5025740;28;20069;-56
2022/08/06 00:26:38;;;;;;;5.50;1.33;;;24.00;52.40;;;;;;5024792;28;20017;-56
2022/08/06 00:29:04;;;;;;;4.97;1.40;;;24.00;52.50;;;;;;5024517;28;20108;-56
2022/08/06 00:31:30;;;;;;;5.15;1.33;;;24.00;52.50;;;;;;5025972;28;20041;-56
2022/08/06 00:33:56;;;;;;;6.93;1.45;;;24.00;52.50;;;;;;5024925;28;20025;-56
2022/08/06 00:36:23;;;;;;;5.57;1.40;;;24.00;52.60;;;;;;5026209;28;20034;-56
2022/08/06 00:38:48;;;;;;;4.65;1.55;;;24.00;52.60;;;;;;5025377;28;20030;-56
2022/08/06 00:41:14;;;;;;;7.15;1.73;;;23.90;52.70;;;;;;5026453;28;20438;-56
2022/08/06 00:43:42;;;;;;;5.35;1.33;;;23.90;52.60;;;;;;5024022;28;20124;-56
2022/08/06 00:46:08;;;;;;;5.10;1.30;;;23.90;52.60;;;;;;5024474;28;20025;-57
2022/08/06 00:48:33;;;;;;;4.20;1.50;;;23.90;52.70;;;;;;5024992;28;20037;-56
2022/08/06 00:50:59;;;;;;;6.38;1.30;;;23.90;52.70;;;;;;5023988;28;20022;-57
2022/08/06 00:53:24;;;;;;;3.85;1.23;;;23.90;52.80;;;;;;5028171;28;20026;-57
2022/08/06 00:55:50;;;;;;;5.22;1.55;;;23.90;52.80;;;;;;5027936;28;20045;-56
2022/08/06 00:58:16;;;;;;;4.95;1.35;;;23.90;52.90;;;;;;5029222;28;20500;-56
2022/08/06 01:00:41;;;;;;;4.97;1.40;;;23.90;52.90;;;;;;5028377;28;20724;-56
2022/08/06 01:03:07;;;;;;;6.00;1.40;;;23.80;52.80;;;;;;5029603;28;20406;-56
2022/08/06 01:05:33;;;;;;;4.30;1.20;;;23.80;52.80;;;;;;5028672;28;20134;-57
2022/08/06 01:07:58;;;;;;;5.57;1.38;;;23.90;52.90;;;;;;5028864;28;20067;-56
2022/08/06 01:10:24;;;;;;;4.47;1.60;;;23.80;52.90;;;;;;5028718;28;20040;-56
2022/08/06 01:12:50;;;;;;;5.60;1.48;;;23.80;53.00;;;;;;5027675;28;20109;-57
2022/08/06 01:15:15;;;;;;;4.88;1.42;;;23.90;53.00;;;;;;5028623;28;20057;-56
2022/08/06 01:17:47;;;;;;;4.43;1.33;;;23.80;53.00;;;;;;5028084;28;20049;-56
2022/08/06 01:20:20;;;;;;;5.50;1.50;;;23.80;53.10;;;;;;5010220;28;20124;-57
2022/08/06 01:23:15;;;;;;;4.15;1.33;;;23.80;53.20;;;;;;5026941;28;20033;-57
2022/08/06 01:26:06;;;;;;;6.00;1.60;;;23.80;53.20;;;;;;5026951;28;20034;-57
2022/08/06 01:28:37;;;;;;;8.02;1.40;;;23.80;53.40;;;;;;5028345;28;20048;-56
2022/08/06 01:31:06;;;;;;;8.98;1.60;;;23.80;53.40;;;;;;5051837;28;20045;-56
2022/08/06 01:34:03;;;;;;;4.90;1.30;;;23.80;53.40;;;;;;5028321;28;20048;-57
2022/08/06 01:36:51;;;;;;;7.57;1.45;;;23.80;53.40;;;;;;5037393;28;20041;-56
2022/08/06 01:39:18;;;;;;;4.75;1.60;;;23.80;53.50;;;;;;5028200;28;20029;-56
2022/08/06 01:41:45;;;;;;;6.90;1.58;;;23.80;53.40;;;;;;5026869;28;20056;-56
2022/08/06 01:44:13;;;;;;;5.10;1.65;;;23.80;53.50;;;;;;5027846;28;20387;-56
2022/08/06 01:46:42;;;;;;;4.10;1.40;;;23.70;53.50;;;;;;5052635;28;20029;-56
2022/08/06 01:49:08;;;;;;;5.93;1.30;;;23.70;53.60;;;;;;5028345;28;20032;-56
2022/08/06 01:51:34;;;;;;;5.60;1.33;;;23.80;53.60;;;;;;5025947;28;20024;-56
2022/08/06 01:54:00;;;;;;;6.45;1.48;;;23.70;53.60;;;;;;5026985;28;20033;-57
2022/08/06 01:56:26;;;;;;;4.90;1.50;;;23.70;53.60;;;;;;5027959;28;20025;-56
2022/08/06 01:58:53;;;;;;;4.28;1.48;;;23.70;53.60;;;;;;5027653;28;20049;-57
2022/08/06 02:01:19;;;;;;;4.25;1.40;;;23.70;53.70;;;;;;5026998;28;20029;-56
2022/08/06 02:03:46;;;;;;;6.40;1.42;;;23.70;53.60;;;;;;5049067;28;20048;-56
2022/08/06 02:06:13;;;;;;;5.53;1.60;;;23.70;53.60;;;;;;5035991;28;20431;-56
2022/08/06 02:08:38;;;;;;;4.53;1.45;;;23.70;53.70;;;;;;5035954;28;20026;-56
2022/08/06 02:11:04;;;;;;;4.45;1.40;;;23.70;53.70;;;;;;5055143;28;20116;-56
2022/08/06 02:13:31;;;;;;;5.43;1.55;;;23.70;53.70;;;;;;5027574;28;20057;-56
2022/08/06 02:15:56;;;;;;;5.30;1.38;;;23.70;53.80;;;;;;5026981;28;20029;-56
2022/08/06 02:18:22;;;;;;;3.63;1.40;;;23.70;53.80;;;;;;5036022;28;20091;-56
2022/08/06 02:20:51;;;;;;;5.22;1.30;;;23.70;53.80;;;;;;5027405;28;20091;-56
2022/08/06 02:23:19;;;;;;;4.70;1.40;;;23.70;53.80;;;;;;5026803;28;20103;-56
2022/08/06 02:25:45;;;;;;;5.22;1.48;;;23.70;53.80;;;;;;5026998;28;20025;-56
2022/08/06 02:28:11;;;;;;;5.85;1.45;;;23.70;53.80;;;;;;5048337;28;20030;-56
2022/08/06 02:30:40;;;;;;;4.40;1.20;;;23.70;53.80;;;;;;5028168;28;20032;-56
2022/08/06 02:33:06;;;;;;;4.88;1.20;;;23.60;53.80;;;;;;5052607;28;20112;-56
2022/08/06 02:35:34;;;;;;;4.65;1.40;;;23.60;53.80;;;;;;5011228;28;20101;-56
2022/08/06 02:38:06;;;;;;;6.47;1.52;;;23.60;53.80;;;;;;5027697;28;20030;-56
2022/08/06 02:40:35;;;;;;;5.43;1.70;;;23.60;53.80;;;;;;5025968;28;20021;-56
2022/08/06 02:43:04;;;;;;;5.47;1.20;;;23.60;53.80;;;;;;5026091;28;20502;-56
2022/08/06 02:45:57;;;;;;;4.32;1.52;;;23.60;53.80;;;;;;5050421;28;20021;-57
2022/08/06 02:48:25;;;;;;;4.10;1.30;;;23.60;53.90;;;;;;5022175;28;20049;-56
2022/08/06 02:50:50;;;;;;;3.55;1.20;;;23.60;53.90;;;;;;5027276;28;20522;-56
2022/08/06 02:53:25;;;;;;;5.07;1.30;;;23.60;53.90;;;;;;5026041;28;20019;-56
2022/08/06 02:55:54;;;;;;;4.53;1.30;;;23.60;54.00;;;;;;5023540;28;20719;-56
2022/08/06 02:58:26;;;;;;;3.97;1.20;;;23.60;54.00;;;;;;5010265;28;20013;-56
2022/08/06 03:00:52;;;;;;;4.57;1.38;;;23.50;53.90;;;;;;5025765;28;20025;-56
2022/08/06 03:03:20;;;;;;;4.35;1.20;;;23.60;54.00;;;;;;5033924;28;20033;-56
2022/08/06 03:05:46;;;;;;;4.35;1.42;;;23.60;54.00;;;;;;5026002;28;20018;-56
2022/08/06 03:08:14;;;;;;;4.40;1.25;;;23.50;53.90;;;;;;5025621;28;20025;-56
2022/08/06 03:10:40;;;;;;;3.83;1.30;;;23.50;53.90;;;;;;5025769;28;20024;-56
2022/08/06 03:13:06;;;;;;;3.33;1.23;;;23.50;53.90;;;;;;5008521;28;20021;-56
2022/08/06 03:15:32;;;;;;;4.55;1.10;;;23.60;54.00;;;;;;5025298;28;20037;-56
2022/08/06 03:18:00;;;;;;;4.97;1.30;;;23.50;53.90;;;;;;5026145;28;20032;-56
2022/08/06 03:20:26;;;;;;;5.55;1.50;;;23.50;53.90;;;;;;5049968;28;20060;-56
2022/08/06 03:22:53;;;;;;;4.18;1.23;;;23.50;54.00;;;;;;5034327;28;20108;-57
2022/08/06 03:25:18;;;;;;;3.65;1.13;;;23.50;54.00;;;;;;5048055;28;20364;-56
2022/08/06 03:27:44;;;;;;;4.03;1.30;;;23.50;54.00;;;;;;5038224;28;20076;-56
2022/08/06 03:30:11;;;;;;;3.83;1.10;;;23.50;54.10;;;;;;5026579;28;20022;-56
2022/08/06 03:32:37;;;;;;;3.92;1.25;;;23.50;54.10;;;;;;5020892;28;20025;-56
2022/08/06 03:35:03;;;;;;;4.45;1.20;;;23.50;54.10;;;;;;5025274;28;20980;-56
2022/08/06 03:37:28;;;;;;;5.30;1.30;;;23.50;54.20;;;;;;5041054;28;20030;-56
2022/08/06 03:39:54;;;;;;;3.05;1.17;;;23.50;54.30;;;;;;5025633;28;20099;-56
2022/08/06 03:42:20;;;;;;;5.53;1.20;;;23.50;54.20;;;;;;5024957;28;20472;-56
2022/08/06 03:44:45;;;;;;;3.22;1.40;;;23.40;54.20;;;;;;5026781;28;20528;-57
2022/08/06 03:47:28;;;;;;;4.47;1.15;;;23.40;54.30;;;;;;5025438;28;20661;-56
2022/08/06 03:50:06;;;;;;;2.65;1.13;;;23.40;54.20;;;;;;5021614;28;20067;-56
2022/08/06 03:52:33;;;;;;;3.55;1.20;;;23.40;54.20;;;;;;5047366;28;20022;-56
2022/08/06 03:55:02;;;;;;;3.47;1.20;;;23.50;54.30;;;;;;5034408;28;20046;-56
2022/08/06 03:57:35;;;;;;;4.47;1.30;;;23.40;54.30;;;;;;5026343;28;20025;-56
2022/08/06 04:00:01;;;;;;;3.47;1.20;;;23.40;54.30;;;;;;5050474;28;20026;-56
2022/08/06 04:02:44;;;;;;;5.22;1.00;;;23.40;54.30;;;;;;5024769;28;20041;-56
2022/08/06 04:05:11;;;;;;;4.65;1.20;;;23.40;54.30;;;;;;5025085;28;20037;-56
2022/08/06 04:07:36;;;;;;;3.05;1.08;;;23.40;54.30;;;;;;5026789;28;20120;-56
2022/08/06 04:10:02;;;;;;;4.25;1.20;;;23.40;54.30;;;;;;5025043;28;20116;-56
2022/08/06 04:12:28;;;;;;;2.08;0.93;;;23.30;54.30;;;;;;5026274;28;20080;-56
2022/08/06 04:14:54;;;;;;;4.50;1.40;;;23.40;54.40;;;;;;5026088;28;20044;-56
2022/08/06 04:17:20;;;;;;;4.13;1.23;;;23.40;54.40;;;;;;5024950;28;20026;-56
2022/08/06 04:19:46;;;;;;;4.30;1.15;;;23.30;54.40;;;;;;5024857;28;20063;-56
2022/08/06 04:22:12;;;;;;;2.53;1.00;;;23.30;54.40;;;;;;5008434;28;20033;-56
2022/08/06 04:24:37;;;;;;;4.35;1.30;;;23.40;54.50;;;;;;5048092;28;20030;-56
2022/08/06 04:27:04;;;;;;;2.40;1.08;;;23.30;54.40;;;;;;5009982;28;20079;-56
2022/08/06 04:29:29;;;;;;;3.60;1.02;;;23.30;54.40;;;;;;5055842;28;20033;-56
2022/08/06 04:31:55;;;;;;;4.97;1.20;;;23.30;54.50;;;;;;5028989;28;20103;-56
2022/08/06 04:34:25;;;;;;;4.18;1.17;;;23.30;54.50;;;;;;5011284;28;20083;-56
2022/08/06 04:36:51;;;;;;;4.65;1.40;;;23.30;54.50;;;;;;5028955;28;20087;-57
2022/08/06 04:39:17;;;;;;;5.05;1.10;;;23.30;54.50;;;;;;5025221;28;20033;-56
2022/08/06 04:41:42;;;;;;;3.90;1.00;;;23.30;54.50;;;;;;5055939;28;20108;-56
2022/08/06 04:44:08;;;;;;;3.15;1.02;;;23.30;54.60;;;;;;5029085;28;20041;-57
2022/08/06 04:46:34;;;;;;;2.47;1.17;;;23.30;54.60;;;;;;5026388;28;20018;-56
2022/08/06 04:48:59;;;;;;;3.67;1.00;;;23.30;54.70;;;;;;5028491;28;20504;-56
2022/08/06 04:51:25;;;;;;;4.38;1.20;;;23.30;54.60;;;;;;5029727;28;20053;-57
2022/08/06 04:53:51;;;;;;;4.18;1.30;;;23.30;54.60;;;;;;5028096;28;20044;-56
2022/08/06 04:56:16;;;;;;;2.60;1.00;;;23.30;54.70;;;;;;5029303;28;20041;-57
2022/08/06 04:58:42;;;;;;;3.72;1.15;;;23.20;54.60;;;;;;5030310;28;20100;-56
2022/08/06 05:01:08;;;;;;;4.32;1.27;;;23.20;54.60;;;;;;5030187;28;20412;-56
2022/08/06 05:03:33;;;;;;;3.88;1.30;;;23.30;55.80;;;;;;5028179;28;20455;-57
2022/08/06 05:06:01;;;;;;;3.15;1.23;;;23.30;54.80;;;;;;5029037;28;20029;-56
2022/08/06 05:08:28;;;;;;;4.90;1.20;;;23.20;54.70;;;;;;5028513;28;20082;-56
2022/08/06 05:11:02;;;;;;;3.05;1.27;;;23.20;54.70;;;;;;5037333;28;20029;-56
2022/08/06 05:13:30;;;;;;;3.30;1.23;;;23.20;54.70;;;;;;5028645;28;20060;-57
2022/08/06 05:15:57;;;;;;;3.20;1.17;;;23.20;54.70;;;;;;5029426;28;20017;-56
2022/08/06 05:18:33;;;;;;;3.35;1.10;;;23.20;54.70;;;;;;5054392;28;20398;-56
2022/08/06 05:20:59;;;;;;;3.15;1.00;;;23.20;54.70;;;;;;5027023;28;20037;-56
2022/08/06 05:23:27;;;;;;;3.92;1.13;;;23.20;54.70;;;;;;5026331;28;20033;-57
2022/08/06 05:25:53;;;;;;;3.38;1.13;;;23.20;54.70;;;;;;5028539;28;20036;-56
2022/08/06 05:28:18;;;;;;;2.55;1.02;;;23.20;54.70;;;;;;5054142;28;20025;-56
2022/08/06 05:30:48;;;;;;;3.20;1.00;;;23.20;54.80;;;;;;5028685;28;20021;-57
2022/08/06 05:33:31;;;;;;;2.92;1.05;;;23.20;54.70;;;;;;5026490;28;20033;-56
2022/08/06 05:35:58;;;;;;;3.55;0.98;;;23.20;54.70;;;;;;5028533;28;20040;-56
2022/08/06 05:38:25;;;;;;;3.15;1.15;;;23.20;54.80;;;;;;5027464;28;20045;-56
2022/08/06 05:40:58;;;;;;;2.85;1.00;;;23.20;54.80;;;;;;5026564;28;20091;-56
2022/08/06 05:43:25;;;;;;;2.17;1.00;;;23.10;54.70;;;;;;5057003;28;20670;-56
2022/08/06 05:45:55;;;;;;;3.63;1.20;;;23.10;54.80;;;;;;5053988;28;20044;-56
2022/08/06 05:48:20;;;;;;;3.47;1.10;;;23.10;54.80;;;;;;5052903;28;20059;-56
2022/08/06 05:50:52;;;;;;;3.53;1.00;;;23.20;54.90;;;;;;5022892;28;20088;-56
2022/08/06 05:53:40;;;;;;;4.43;1.17;;;23.10;54.80;;;;;;5028652;28;20147;-56
2022/08/06 05:56:11;;;;;;;4.60;1.15;;;23.10;54.80;;;;;;5034972;28;20506;-56
2022/08/06 05:58:38;;;;;;;3.25;1.15;;;23.10;54.80;;;;;;5026921;28;20029;-56
2022/08/06 06:01:05;;;;;;;2.70;1.00;;;23.10;54.80;;;;;;5029031;28;20029;-56
2022/08/06 06:03:31;;;;;;;2.63;1.05;;;23.10;54.70;;;;;;5038862;28;20037;-56
2022/08/06 06:05:58;;;;;;;2.38;0.90;;;23.10;54.80;;;;;;5027756;28;20022;-56
2022/08/06 06:08:24;;;;;;;4.05;0.80;;;23.10;54.80;;;;;;5049139;28;20498;-56
2022/08/06 06:10:50;;;;;;;2.13;1.13;;;23.10;54.80;;;;;;5025760;28;20032;-56
2022/08/06 06:13:15;;;;;;;3.78;1.23;;;23.10;54.80;;;;;;5026687;28;20025;-56
2022/08/06 06:15:44;;;;;;;3.60;1.08;;;23.10;54.70;;;;;;5026740;28;20076;-56
2022/08/06 06:18:24;;;;;;;3.78;1.13;;;23.10;54.70;;;;;;5050786;28;20056;-56
2022/08/06 06:21:10;;;;;;;2.40;1.00;;;23.10;54.80;;;;;;5028082;28;20112;-56
2022/08/06 06:23:51;;;;;;;2.25;0.70;;;23.10;54.70;;;;;;5027303;28;20470;-56
2022/08/06 06:26:37;;;;;;;2.53;1.08;;;23.10;54.70;;;;;;5024456;28;20021;-56
2022/08/06 06:29:28;;;;;;;2.35;0.90;;;23.10;54.70;;;;;;5024433;28;20053;-56
2022/08/06 06:32:24;;;;;;;3.05;1.00;;;23.10;54.70;;;;;;5025062;28;20086;-56
2022/08/06 06:35:03;;;;;;;2.45;0.95;;;23.10;54.70;;;;;;5027567;28;20057;-56
2022/08/06 06:37:38;;;;;;;2.63;1.10;;;23.00;54.70;;;;;;5049542;28;20088;-56
2022/08/06 06:40:13;;;;;;;;;;;23.00;54.70;;;;;;5027900;28;20026;-56
2022/08/06 06:43:11;;;;;;;2.58;0.82;;;23.00;54.70;;;;;;5024967;28;19924;-56
2022/08/06 06:46:03;;;;;;;1.70;0.75;;;23.00;54.80;;;;;;5027018;28;20044;-56
2022/08/06 06:48:45;;;;;;;2.90;1.00;;;23.00;54.80;;;;;;5035083;28;20083;-56
2022/08/06 06:51:16;;;;;;;3.35;1.10;;;23.00;54.80;;;;;;5036988;28;20042;-56
2022/08/06 06:53:45;;;;;;;2.75;0.90;;;23.00;54.80;;;;;;5022864;28;20064;-56
2022/08/06 06:56:11;;;;;;;2.33;1.00;;;23.00;54.80;;;;;;5025427;28;20046;-56
2022/08/06 06:58:40;;;;;;;1.88;0.88;;;23.00;54.80;;;;;;5023149;28;20039;-56
2022/08/06 07:01:08;;;;;;;2.67;1.00;;;23.00;54.80;;;;;;5032782;28;20029;-56
2022/08/06 07:03:34;;;;;;;2.55;1.00;;;23.00;54.90;;;;;;5023521;28;20049;-56
2022/08/06 07:06:00;;;;;;;1.83;0.95;;;23.00;54.00;;;;;;5028595;28;20518;-56
2022/08/06 07:08:26;;;;;;;5.05;0.90;;;23.00;54.80;;;;;;5023358;28;20044;-57
2022/08/06 07:10:52;;;;;;;5.13;1.00;;;23.00;55.00;;;;;;5039440;28;20206;-58
2022/08/06 07:13:18;;;;;;;7.40;1.75;;;23.00;54.90;;;;;;5035749;28;20185;-57
2022/08/06 07:15:44;;;;;;;7.03;1.38;;;23.00;54.90;;;;;;5041348;28;20085;-57
2022/08/06 07:18:11;;;;;;;8.25;1.40;;;22.90;55.00;;;;;;5042851;28;20069;-58
2022/08/06 07:20:37;;;;;;;6.80;1.65;;;22.90;55.10;;;;;;5022152;28;20033;-58
2022/08/06 07:23:06;;;;;;;9.95;1.80;;;22.90;55.20;;;;;;5039108;28;20563;-58
2022/08/06 07:25:38;;;;;;;9.90;1.60;;;22.90;55.40;;;;;;5028952;28;20392;-58
2022/08/06 07:28:08;;;;;;;6.78;1.60;;;22.90;55.40;;;;;;5022651;28;20041;-58
2022/08/06 07:30:36;;;;;;;7.65;1.88;;;22.90;55.50;;;;;;5015681;28;20033;-58
2022/08/06 07:33:06;;;;;;;8.52;1.75;;;22.90;55.70;;;;;;5049535;28;20071;-58
2022/08/06 07:35:36;;;;;;;9.20;1.83;;;22.90;55.80;;;;;;5004886;28;20071;-58
2022/08/06 07:38:04;;;;;;;10.70;2.22;;;22.90;56.00;;;;;;5023626;28;20040;-58
2022/08/06 07:40:40;;;;;;;10.93;1.83;;;22.90;57.10;;;;;;5021738;28;20486;-58
2022/08/06 07:43:11;;;;;;;13.00;2.35;;;22.90;56.00;;;;;;5020990;28;20552;-58
2022/08/06 07:45:37;;;;;;;8.50;2.13;;;22.90;56.20;;;;;;5026147;28;20025;-58
2022/08/06 07:48:08;;;;;;;10.00;1.80;;;22.80;56.50;;;;;;5023311;28;20028;-58
2022/08/06 07:50:36;;;;;;;14.38;2.00;;;22.80;56.20;;;;;;5021065;28;20095;-60
2022/08/06 07:53:04;;;;;;;12.15;2.22;;;22.80;56.10;;;;;;5008578;28;20080;-58
2022/08/06 07:55:30;;;;;;;10.77;1.95;;;22.80;56.00;;;;;;5023871;28;20074;-58
2022/08/06 07:57:57;;;;;;;13.68;2.47;;;22.80;56.00;;;;;;5050049;28;20511;-58
2022/08/06 08:00:24;;;;;;;11.88;1.90;;;22.80;55.90;;;;;;5021446;28;20037;-57
2022/08/06 08:08:27;;;;;;;14.75;2.05;;;22.80;55.70;;;;;;5024165;28;20041;-57
2022/08/06 08:10:53;;;;;;;11.05;1.70;;;22.80;55.60;;;;;;5024081;28;20103;-57
2022/08/06 08:13:23;;;;;;;11.48;1.95;;;22.80;55.50;;;;;;5023615;28;20022;-57
2022/08/06 08:15:49;;;;;;;9.88;2.00;;;22.80;55.60;;;;;;5025011;28;20029;-57
2022/08/06 08:18:19;;;;;;;9.98;2.05;;;22.80;56.00;;;;;;5023440;28;20504;-57
2022/08/06 08:20:45;;;;;;;12.05;2.20;;;22.80;56.00;;;;;;5022969;28;20402;-57
2022/08/06 08:23:14;;;;;;;9.93;2.03;;;22.90;56.00;;;;;;5021534;28;20042;-57
2022/08/06 08:25:40;;;;;;;11.57;2.20;;;23.00;56.00;;;;;;5024184;28;20140;-56
2022/08/06 08:28:09;;;;;;;14.70;2.20;;;23.10;56.40;;;;;;5023627;28;20183;-57
2022/08/06 08:30:39;;;;;;;12.95;2.22;;;23.10;56.20;;;;;;5049456;28;20026;-57
2022/08/06 08:33:06;;;;;;;15.50;2.75;;;23.20;56.10;;;;;;5048937;28;20426;-57
2022/08/06 08:35:32;;;;;;;11.98;2.22;;;23.20;57.90;;;;;;5022671;28;20455;-57
2022/08/06 08:37:59;;;;;;;12.20;2.10;;;23.30;57.40;;;;;;5024503;28;20120;-56
2022/08/06 08:40:28;;;;;;;14.13;2.28;;;23.40;56.90;;;;;;5022530;28;20037;-56
2022/08/06 08:42:55;;;;;;;9.82;2.00;;;23.40;57.00;;;;;;5029657;28;20033;-56
2022/08/06 08:45:21;;;;;;;12.77;2.53;;;23.40;56.80;;;;;;5024380;28;20061;-56
2022/08/06 08:47:50;;;;;;;10.27;2.20;;;23.40;57.00;;;;;;5048492;28;20022;-56
2022/08/06 08:50:25;;;;;;;12.00;1.92;;;23.40;56.80;;;;;;5023875;28;20052;-56
2022/08/06 08:52:52;;;;;;;17.98;2.35;;;23.40;55.40;;;;;;5024267;28;20057;-56
2022/08/06 08:55:21;;;;;;;9.38;1.80;;;23.20;54.00;;;;;;5024237;28;20045;-56
2022/08/06 08:57:47;;;;;;;10.25;2.15;;;23.20;53.80;;;;;;5050378;28;20025;-56
2022/08/06 09:00:13;;;;;;;9.32;1.90;;;23.20;53.60;;;;;;5024238;28;20029;-56
2022/08/06 09:02:39;;;;;;;9.30;1.98;;;23.20;53.50;;;;;;5025022;28;20033;-56
2022/08/06 09:05:05;;;;;;;8.77;1.90;;;23.20;53.60;;;;;;5023923;28;20034;-56
2022/08/06 09:07:31;;;;;;;11.18;1.90;;;23.20;54.20;;;;;;5050971;28;20032;-56
2022/08/06 09:09:58;;;;;;;11.75;2.30;;;23.20;52.90;;;;;;5024071;28;20041;-56
2022/08/06 09:12:23;;;;;;;10.65;1.90;;;23.30;52.80;;;;;;5024326;28;20029;-56
2022/08/06 09:14:49;;;;;;;9.05;2.03;;;23.30;52.60;;;;;;5025576;28;20044;-56
2022/08/06 09:17:16;;;;;;;9.43;1.83;;;23.30;52.70;;;;;;5028067;28;20498;-56
2022/08/06 09:19:42;;;;;;;10.07;1.90;;;23.30;52.30;;;;;;5028769;28;20041;-56
2022/08/06 09:22:08;;;;;;;9.35;1.90;;;23.30;52.00;;;;;;5028470;28;20025;-56
2022/08/06 09:24:36;;;;;;;7.85;1.73;;;23.40;52.20;;;;;;5027488;28;20084;-57
2022/08/06 09:27:14;;;;;;;10.52;1.65;;;23.40;52.30;;;;;;5027785;28;20025;-56
2022/08/06 09:29:59;;;;;;;10.43;1.85;;;23.40;51.90;;;;;;5026670;28;20083;-58
2022/08/06 09:32:43;;;;;;;11.32;1.98;;;23.40;51.90;;;;;;5025358;28;20021;-57
2022/08/06 09:35:20;;;;;;;9.75;1.88;;;23.40;52.80;;;;;;5027690;28;20033;-57
2022/08/06 09:37:46;;;;;;;10.68;1.90;;;23.40;53.20;;;;;;5025488;28;20060;-57
2022/08/06 09:40:19;;;;;;;13.95;2.13;;;23.40;53.50;;;;;;5023114;28;20505;-57
2022/08/06 09:42:50;;;;;;;13.90;2.10;;;23.40;53.60;;;;;;5025755;28;20806;-57
2022/08/06 09:45:18;;;;;;;13.23;2.30;;;23.50;53.60;;;;;;5029327;28;20563;-57
2022/08/06 09:47:45;;;;;;;10.13;1.90;;;23.50;53.50;;;;;;5026068;28;20032;-57
2022/08/06 09:50:10;;;;;;;11.75;1.98;;;23.50;53.30;;;;;;5056044;28;20033;-57
2022/08/06 09:52:36;;;;;;;14.52;2.20;;;23.50;53.50;;;;;;5027780;28;20033;-57
2022/08/06 09:55:17;;;;;;;8.38;1.80;;;23.50;53.50;;;;;;5026412;28;20085;-57
2022/08/06 09:57:45;;;;;;;9.05;2.10;;;23.40;53.90;;;;;;5033048;28;20040;-58
2022/08/06 10:00:14;;;;;;;10.85;2.30;;;23.40;53.90;;;;;;5026268;28;20163;-58
2022/08/06 10:02:46;;;;;;;15.98;2.10;;;23.50;53.80;;;;;;5026962;28;20057;-57
2022/08/06 10:05:14;;;;;;;12.82;1.90;;;23.60;53.80;;;;;;5033183;28;20530;-58
2022/08/06 10:07:40;;;;;;;14.80;2.22;;;23.60;53.80;;;;;;5027042;28;20021;-58
2022/08/06 10:10:07;;;;;;;12.35;2.35;;;23.60;53.70;;;;;;5048893;28;20034;-58
2022/08/06 10:12:34;;;;;;;10.13;2.03;;;23.70;53.60;;;;;;5027567;28;20125;-58
2022/08/06 10:15:02;;;;;;;9.60;1.90;;;23.60;53.50;;;;;;5026204;28;20034;-57
2022/08/06 10:17:28;;;;;;;10.73;2.40;;;23.60;53.90;;;;;;5020751;28;20025;-57
2022/08/06 10:20:16;;;;;;;11.50;1.88;;;23.60;54.00;;;;;;5025994;28;20789;-57
2022/08/06 10:22:54;;;;;;;13.88;2.20;;;23.70;54.30;;;;;;5024808;28;20034;-57
2022/08/06 10:25:20;;;;;;;10.38;2.22;;;23.70;54.10;;;;;;5020227;28;20502;-58
2022/08/06 10:27:46;;;;;;;18.52;3.13;;;23.70;54.60;;;;;;5020200;28;20474;-55
2022/08/06 10:30:11;;;;;;;17.17;2.83;;;23.80;54.70;;;;;;5025218;28;20080;-55
2022/08/06 10:32:51;;;;;;;16.13;2.55;;;23.70;54.90;;;;;;5025003;28;20022;-55
2022/08/06 10:35:18;;;;;;;19.13;3.40;;;23.70;55.20;;;;;;5026343;28;20029;-55
2022/08/06 10:37:45;;;;;;;16.65;3.20;;;23.80;55.20;;;;;;5024825;28;20029;-56
2022/08/06 10:40:12;;;;;;;17.67;3.60;;;23.80;55.50;;;;;;5025415;28;20044;-58
2022/08/06 10:42:40;;;;;;;16.27;3.55;;;23.80;55.20;;;;;;5025710;28;20022;-57
2022/08/06 10:45:08;;;;;;;14.73;2.95;;;23.80;55.20;;;;;;5025037;28;20033;-57
2022/08/06 10:47:36;;;;;;;22.33;3.80;;;23.90;55.30;;;;;;5024169;28;20030;-57
2022/08/06 10:50:01;;;;;;;15.88;5.72;;;23.90;54.90;;;;;;5026622;28;20030;-57
2022/08/06 10:52:27;;;;;;;28.88;12.95;;;23.90;55.10;;;;;;5025611;28;20099;-57
2022/08/06 10:54:53;;;;;;;43.00;26.83;;;24.00;55.10;;;;;;5025818;28;20079;-57
2022/08/06 10:57:19;;;;;;;31.67;20.17;;;24.00;54.50;;;;;;5017337;28;20053;-57
2022/08/06 10:59:45;;;;;;;38.65;24.05;;;24.00;54.60;;;;;;5023441;28;20116;-55
2022/08/06 11:02:23;;;;;;;37.25;20.67;;;24.00;54.20;;;;;;5022318;28;20033;-54
2022/08/06 11:05:05;;;;;;;36.40;19.70;;;24.00;54.10;;;;;;5023647;28;20041;-54
2022/08/06 11:07:43;;;;;;;35.78;20.20;;;24.00;54.00;;;;;;5024202;28;20025;-54
2022/08/06 11:10:47;;;;;;;30.67;17.98;;;24.10;54.10;;;;;;5024121;28;20036;-53
2022/08/06 11:13:32;;;;;;;28.70;13.57;;;24.10;53.50;;;;;;5024793;28;20029;-52
2022/08/06 11:15:57;;;;;;;25.13;12.77;;;24.20;53.10;;;;;;5023641;28;20022;-54
2022/08/06 11:18:26;;;;;;;22.08;9.23;;;24.30;53.60;;;;;;5020833;28;20091;-53
2022/08/06 11:20:58;;;;;;;19.35;8.40;;;24.30;53.50;;;;;;5023179;28;20034;-54
2022/08/06 11:23:29;;;;;;;16.67;7.40;;;24.20;53.40;;;;;;5024822;28;20061;-54
2022/08/06 11:25:57;;;;;;;24.38;7.85;;;24.10;53.50;;;;;;5022697;28;20025;-56
2022/08/06 11:28:29;;;;;;;21.23;6.40;;;24.20;53.30;;;;;;5024167;28;20036;-56
2022/08/06 11:30:59;;;;;;;20.00;6.90;;;24.20;53.30;;;;;;5027510;28;20104;-53
2022/08/06 11:33:37;;;;;;;15.68;5.82;;;24.30;53.40;;;;;;5022285;28;20057;-54
2022/08/06 11:36:05;;;;;;;15.60;4.85;;;24.30;53.30;;;;;;5023783;28;20103;-54
2022/08/06 11:38:46;;;;;;;18.27;4.90;;;24.30;52.90;;;;;;5022273;28;20032;-55
2022/08/06 11:41:21;;;;;;;14.77;4.43;;;24.30;52.90;;;;;;5022633;28;20027;-55
2022/08/06 11:43:52;;;;;;;13.68;4.20;;;24.30;53.20;;;;;;5019903;28;20506;-54
2022/08/06 11:46:38;;;;;;;15.35;4.70;;;24.40;53.40;;;;;;5023746;28;20021;-56
2022/08/06 11:49:04;;;;;;;14.48;4.50;;;24.40;53.40;;;;;;5022582;28;20037;-56
2022/08/06 11:51:49;;;;;;;14.85;4.30;;;24.40;53.60;;;;;;5023288;28;20018;-56
2022/08/06 11:54:21;;;;;;;14.32;3.80;;;24.40;53.40;;;;;;5021756;28;20437;-55
2022/08/06 11:57:04;;;;;;;15.65;4.20;;;24.40;53.50;;;;;;5024655;28;20115;-55
2022/08/06 11:59:37;;;;;;;11.95;3.40;;;24.50;53.50;;;;;;5023316;28;20026;-56
2022/08/06 12:02:06;;;;;;;12.77;3.47;;;24.50;53.50;;;;;;5023361;28;20502;-56
2022/08/06 12:04:32;;;;;;;15.07;3.40;;;24.40;53.30;;;;;;5008054;28;20502;-56
2022/08/06 12:07:21;;;;;;;16.67;3.70;;;24.50;53.30;;;;;;5024932;28;20039;-57
2022/08/06 12:10:23;;;;;;;12.10;3.33;;;24.40;53.30;;;;;;5022137;28;20029;-56
2022/08/06 12:12:50;;;;;;;12.73;3.50;;;24.50;53.50;;;;;;5022209;28;20025;-57
2022/08/06 12:15:16;;;;;;;13.35;3.50;;;24.50;53.40;;;;;;5008275;28;20116;-56
2022/08/06 12:17:56;;;;;;;13.90;3.47;;;24.40;53.70;;;;;;5024263;28;20167;-56
2022/08/06 12:20:37;;;;;;;15.52;3.75;;;24.50;53.60;;;;;;5023539;28;20393;-56
2022/08/06 12:23:04;;;;;;;14.70;3.70;;;24.50;53.90;;;;;;5021645;28;20040;-56
2022/08/06 12:25:31;;;;;;;15.48;4.20;;;24.50;54.20;;;;;;5048736;28;20042;-57
2022/08/06 12:27:59;;;;;;;13.73;3.78;;;24.40;54.00;;;;;;5026253;28;20021;-58
2022/08/06 12:30:25;;;;;;;14.57;4.25;;;24.40;54.00;;;;;;5019581;28;20049;-56
2022/08/06 12:32:59;;;;;;;13.50;3.22;;;24.50;54.30;;;;;;5022761;28;20108;-56
2022/08/06 12:35:25;;;;;;;15.18;3.63;;;24.50;54.20;;;;;;5023091;28;20053;-56
2022/08/06 12:37:51;;;;;;;13.20;3.25;;;24.60;54.40;;;;;;5026372;28;20068;-56
2022/08/06 12:40:24;;;;;;;16.15;4.20;;;24.60;54.40;;;;;;5025620;28;20026;-57
2022/08/06 12:42:54;;;;;;;16.05;4.10;;;24.60;54.50;;;;;;5024159;28;20042;-56
2022/08/06 12:45:23;;;;;;;13.70;4.03;;;24.60;54.50;;;;;;5052092;28;20033;-57
2022/08/06 12:48:01;;;;;;;13.85;3.78;;;24.60;54.50;;;;;;5024585;28;20032;-57
2022/08/06 12:50:31;;;;;;;16.27;3.80;;;24.60;54.30;;;;;;5028799;28;20406;-57
2022/08/06 12:53:14;;;;;;;12.45;3.70;;;24.60;54.40;;;;;;5029055;28;20029;-56
2022/08/06 12:55:42;;;;;;;15.43;3.75;;;24.60;54.50;;;;;;5028963;28;20053;-56
2022/08/06 12:58:09;;;;;;;14.15;3.58;;;24.60;54.40;;;;;;5029382;28;20030;-57
2022/08/06 13:00:35;;;;;;;9.73;3.33;;;24.70;54.20;;;;;;5033857;28;20025;-56
2022/08/06 13:03:01;;;;;;;15.15;3.97;;;24.60;53.70;;;;;;5041516;28;20502;-56